sensor_id;sensor_type;location;lat;lon;timestamp;temperature;humidity
63202;DHT22;49296;48.188;11.566;2023-07-31T00:01:12;19.27;61.25
63202;DHT22;49296;48.188;11.566;2023-07-31T00:03:39;19.25;61.46
63202;DHT22;49296;48.188;11.566;2023-07-31T00:06:07;19.29;61.75
63202;DHT22;49296;48.188;11.566;2023-07-31T00:08:33;19.37;61.64
63202;DHT22;49296;48.188;11.566;2023-07-31T00:11:00;19.33;61.66
63202;DHT22;49296;48.188;11.566;2023-07-31T00:13:26;19.27;61.63
63202;DHT22;49296;48.188;11.566;2023-07-31T00:15:53;19.25;61.70
63202;DHT22;49296;48.188;11.566;2023-07-31T00:18:20;19.25;61.88
63202;DHT22;49296;48.188;11.566;2023-07-31T00:20:46;18.99;62.64
63202;DHT22;49296;48.188;11.566;2023-07-31T00:23:14;19.06;62.72
63202;DHT22;49296;48.188;11.566;2023-07-31T00:25:41;19.22;62.68
63202;DHT22;49296;48.188;11.566;2023-07-31T00:28:08;19.32;62.01
63202;DHT22;49296;48.188;11.566;2023-07-31T00:30:34;19.39;61.83
63202;DHT22;49296;48.188;11.566;2023-07-31T00:33:01;19.40;61.95
63202;DHT22;49296;48.188;11.566;2023-07-31T00:35:27;19.16;62.57
63202;DHT22;49296;48.188;11.566;2023-07-31T00:37:54;19.18;62.61
63202;DHT22;49296;48.188;11.566;2023-07-31T00:40:21;19.27;62.46
63202;DHT22;49296;48.188;11.566;2023-07-31T00:42:48;19.05;62.78
63202;DHT22;49296;48.188;11.566;2023-07-31T00:45:14;19.19;62.74
63202;DHT22;49296;48.188;11.566;2023-07-31T00:47:41;19.23;62.42
63202;DHT22;49296;48.188;11.566;2023-07-31T00:50:08;19.16;62.75
63202;DHT22;49296;48.188;11.566;2023-07-31T00:52:35;19.12;62.84
63202;DHT22;49296;48.188;11.566;2023-07-31T00:55:01;19.18;62.57
63202;DHT22;49296;48.188;11.566;2023-07-31T00:57:30;19.05;62.99
63202;DHT22;49296;48.188;11.566;2023-07-31T00:59:58;19.02;63.15
63202;DHT22;49296;48.188;11.566;2023-07-31T01:02:24;18.92;63.38
63202;DHT22;49296;48.188;11.566;2023-07-31T01:04:51;19.05;62.96
63202;DHT22;49296;48.188;11.566;2023-07-31T01:07:22;19.14;62.77
63202;DHT22;49296;48.188;11.566;2023-07-31T01:09:59;19.02;62.99
63202;DHT22;49296;48.188;11.566;2023-07-31T01:12:27;19.02;62.71
63202;DHT22;49296;48.188;11.566;2023-07-31T01:15:04;18.95;62.73
63202;DHT22;49296;48.188;11.566;2023-07-31T01:17:30;18.84;62.81
63202;DHT22;49296;48.188;11.566;2023-07-31T01:20:02;18.81;63.02
63202;DHT22;49296;48.188;11.566;2023-07-31T01:22:44;18.89;62.97
63202;DHT22;49296;48.188;11.566;2023-07-31T01:25:22;18.77;62.89
63202;DHT22;49296;48.188;11.566;2023-07-31T01:27:59;18.84;62.68
63202;DHT22;49296;48.188;11.566;2023-07-31T01:30:28;19.05;62.30
63202;DHT22;49296;48.188;11.566;2023-07-31T01:32:59;19.06;62.30
63202;DHT22;49296;48.188;11.566;2023-07-31T01:35:27;19.04;62.29
63202;DHT22;49296;48.188;11.566;2023-07-31T01:37:54;19.12;62.15
63202;DHT22;49296;48.188;11.566;2023-07-31T01:40:21;19.02;62.03
63202;DHT22;49296;48.188;11.566;2023-07-31T01:42:47;19.05;61.94
63202;DHT22;49296;48.188;11.566;2023-07-31T01:45:15;18.91;62.15
63202;DHT22;49296;48.188;11.566;2023-07-31T01:47:42;18.72;62.49
63202;DHT22;49296;48.188;11.566;2023-07-31T01:50:09;18.80;62.70
63202;DHT22;49296;48.188;11.566;2023-07-31T01:52:36;18.81;62.54
63202;DHT22;49296;48.188;11.566;2023-07-31T01:55:03;18.85;62.61
63202;DHT22;49296;48.188;11.566;2023-07-31T01:57:29;18.67;62.90
63202;DHT22;49296;48.188;11.566;2023-07-31T01:59:56;18.74;62.87
63202;DHT22;49296;48.188;11.566;2023-07-31T02:02:24;18.81;62.72
63202;DHT22;49296;48.188;11.566;2023-07-31T02:04:50;18.72;62.77
63202;DHT22;49296;48.188;11.566;2023-07-31T02:07:17;18.70;63.02
63202;DHT22;49296;48.188;11.566;2023-07-31T02:09:43;18.72;63.03
63202;DHT22;49296;48.188;11.566;2023-07-31T02:12:12;18.64;63.19
63202;DHT22;49296;48.188;11.566;2023-07-31T02:14:39;18.68;63.18
63202;DHT22;49296;48.188;11.566;2023-07-31T02:17:06;18.70;63.27
63202;DHT22;49296;48.188;11.566;2023-07-31T02:19:34;18.74;63.13
63202;DHT22;49296;48.188;11.566;2023-07-31T02:22:00;18.75;63.15
63202;DHT22;49296;48.188;11.566;2023-07-31T02:24:27;18.74;63.21
63202;DHT22;49296;48.188;11.566;2023-07-31T02:26:53;18.67;63.40
63202;DHT22;49296;48.188;11.566;2023-07-31T02:29:20;18.61;63.58
63202;DHT22;49296;48.188;11.566;2023-07-31T02:31:46;18.64;63.54
63202;DHT22;49296;48.188;11.566;2023-07-31T02:34:13;18.75;63.43
63202;DHT22;49296;48.188;11.566;2023-07-31T02:36:41;18.74;63.22
63202;DHT22;49296;48.188;11.566;2023-07-31T02:39:07;18.60;63.35
63202;DHT22;49296;48.188;11.566;2023-07-31T02:41:34;18.59;63.51
63202;DHT22;49296;48.188;11.566;2023-07-31T02:44:00;18.53;63.87
63202;DHT22;49296;48.188;11.566;2023-07-31T02:46:27;18.39;64.08
63202;DHT22;49296;48.188;11.566;2023-07-31T02:48:53;18.43;64.19
63202;DHT22;49296;48.188;11.566;2023-07-31T02:51:20;18.35;64.44
63202;DHT22;49296;48.188;11.566;2023-07-31T02:53:48;18.35;64.42
63202;DHT22;49296;48.188;11.566;2023-07-31T02:56:15;18.29;64.70
63202;DHT22;49296;48.188;11.566;2023-07-31T02:58:42;18.29;64.79
63202;DHT22;49296;48.188;11.566;2023-07-31T03:01:08;18.21;65.09
63202;DHT22;49296;48.188;11.566;2023-07-31T03:03:35;18.16;65.32
63202;DHT22;49296;48.188;11.566;2023-07-31T03:06:01;18.15;65.45
63202;DHT22;49296;48.188;11.566;2023-07-31T03:08:28;18.12;65.64
63202;DHT22;49296;48.188;11.566;2023-07-31T03:10:56;18.11;65.83
63202;DHT22;49296;48.188;11.566;2023-07-31T03:13:23;18.11;65.89
63202;DHT22;49296;48.188;11.566;2023-07-31T03:15:50;18.15;65.80
63202;DHT22;49296;48.188;11.566;2023-07-31T03:18:16;18.15;65.87
63202;DHT22;49296;48.188;11.566;2023-07-31T03:20:43;18.08;66.01
63202;DHT22;49296;48.188;11.566;2023-07-31T03:23:10;17.98;66.37
63202;DHT22;49296;48.188;11.566;2023-07-31T03:25:36;17.98;66.40
63202;DHT22;49296;48.188;11.566;2023-07-31T03:28:04;18.05;66.36
63202;DHT22;49296;48.188;11.566;2023-07-31T03:30:31;18.06;66.41
63202;DHT22;49296;48.188;11.566;2023-07-31T03:32:58;17.92;66.72
63202;DHT22;49296;48.188;11.566;2023-07-31T03:35:24;17.87;67.10
63202;DHT22;49296;48.188;11.566;2023-07-31T03:37:51;17.94;66.94
63202;DHT22;49296;48.188;11.566;2023-07-31T03:40:17;17.87;67.27
63202;DHT22;49296;48.188;11.566;2023-07-31T03:42:44;17.97;67.29
63202;DHT22;49296;48.188;11.566;2023-07-31T03:45:12;17.94;67.42
63202;DHT22;49296;48.188;11.566;2023-07-31T03:47:39;18.08;67.28
63202;DHT22;49296;48.188;11.566;2023-07-31T03:50:06;17.95;67.78
63202;DHT22;49296;48.188;11.566;2023-07-31T03:52:33;17.91;68.07
63202;DHT22;49296;48.188;11.566;2023-07-31T03:54:59;18.01;68.14
63202;DHT22;49296;48.188;11.566;2023-07-31T03:57:26;17.91;68.52
63202;DHT22;49296;48.188;11.566;2023-07-31T03:59:52;17.91;68.82
63202;DHT22;49296;48.188;11.566;2023-07-31T04:02:20;17.88;68.95
63202;DHT22;49296;48.188;11.566;2023-07-31T04:04:47;17.85;69.26
63202;DHT22;49296;48.188;11.566;2023-07-31T04:07:13;17.90;69.14
63202;DHT22;49296;48.188;11.566;2023-07-31T04:09:40;17.88;68.87
63202;DHT22;49296;48.188;11.566;2023-07-31T04:12:07;17.94;68.56
63202;DHT22;49296;48.188;11.566;2023-07-31T04:14:33;18.01;68.51
63202;DHT22;49296;48.188;11.566;2023-07-31T04:17:00;18.01;68.58
63202;DHT22;49296;48.188;11.566;2023-07-31T04:19:28;18.04;68.46
63202;DHT22;49296;48.188;11.566;2023-07-31T04:21:54;18.04;68.60
63202;DHT22;49296;48.188;11.566;2023-07-31T04:24:21;18.16;68.34
63202;DHT22;49296;48.188;11.566;2023-07-31T04:26:49;18.12;68.55
63202;DHT22;49296;48.188;11.566;2023-07-31T04:29:16;18.13;68.77
63202;DHT22;49296;48.188;11.566;2023-07-31T04:31:42;18.04;68.93
63202;DHT22;49296;48.188;11.566;2023-07-31T04:34:09;18.05;69.10
63202;DHT22;49296;48.188;11.566;2023-07-31T04:36:37;18.08;69.15
63202;DHT22;49296;48.188;11.566;2023-07-31T04:39:04;18.11;69.01
63202;DHT22;49296;48.188;11.566;2023-07-31T04:41:30;18.12;69.08
63202;DHT22;49296;48.188;11.566;2023-07-31T04:43:57;18.06;69.29
63202;DHT22;49296;48.188;11.566;2023-07-31T04:46:23;18.02;69.60
63202;DHT22;49296;48.188;11.566;2023-07-31T04:48:50;18.16;69.23
63202;DHT22;49296;48.188;11.566;2023-07-31T04:51:16;18.06;69.63
63202;DHT22;49296;48.188;11.566;2023-07-31T04:53:44;18.09;69.60
63202;DHT22;49296;48.188;11.566;2023-07-31T04:56:11;18.09;69.53
63202;DHT22;49296;48.188;11.566;2023-07-31T04:58:38;18.15;69.37
63202;DHT22;49296;48.188;11.566;2023-07-31T05:01:04;18.29;69.25
63202;DHT22;49296;48.188;11.566;2023-07-31T05:03:31;18.37;69.03
63202;DHT22;49296;48.188;11.566;2023-07-31T05:05:57;18.37;69.07
63202;DHT22;49296;48.188;11.566;2023-07-31T05:08:24;18.37;69.13
63202;DHT22;49296;48.188;11.566;2023-07-31T05:10:51;18.63;68.56
63202;DHT22;49296;48.188;11.566;2023-07-31T05:13:18;18.52;68.78
63202;DHT22;49296;48.188;11.566;2023-07-31T05:15:45;18.37;69.25
63202;DHT22;49296;48.188;11.566;2023-07-31T05:18:11;18.33;69.56
63202;DHT22;49296;48.188;11.566;2023-07-31T05:20:38;18.35;69.46
63202;DHT22;49296;48.188;11.566;2023-07-31T05:23:04;18.26;69.70
63202;DHT22;49296;48.188;11.566;2023-07-31T05:25:31;18.33;69.76
63202;DHT22;49296;48.188;11.566;2023-07-31T05:27:59;18.29;69.78
63202;DHT22;49296;48.188;11.566;2023-07-31T05:30:25;18.37;69.21
63202;DHT22;49296;48.188;11.566;2023-07-31T05:32:52;18.28;69.26
63202;DHT22;49296;48.188;11.566;2023-07-31T05:35:18;18.42;68.91
63202;DHT22;49296;48.188;11.566;2023-07-31T05:37:45;18.44;68.79
63202;DHT22;49296;48.188;11.566;2023-07-31T05:40:11;18.56;68.61
63202;DHT22;49296;48.188;11.566;2023-07-31T05:42:38;18.61;67.95
63202;DHT22;49296;48.188;11.566;2023-07-31T05:45:07;18.72;67.44
63202;DHT22;49296;48.188;11.566;2023-07-31T05:47:34;18.65;66.85
63202;DHT22;49296;48.188;11.566;2023-07-31T05:50:00;18.67;67.13
63202;DHT22;49296;48.188;11.566;2023-07-31T05:52:27;18.65;67.37
63202;DHT22;49296;48.188;11.566;2023-07-31T05:54:54;18.72;66.89
63202;DHT22;49296;48.188;11.566;2023-07-31T05:57:21;18.67;66.90
63202;DHT22;49296;48.188;11.566;2023-07-31T05:59:48;18.72;66.23
63202;DHT22;49296;48.188;11.566;2023-07-31T06:02:15;18.74;66.96
63202;DHT22;49296;48.188;11.566;2023-07-31T06:04:42;18.68;66.84
63202;DHT22;49296;48.188;11.566;2023-07-31T06:07:08;18.67;67.05
63202;DHT22;49296;48.188;11.566;2023-07-31T06:09:36;18.85;66.96
63202;DHT22;49296;48.188;11.566;2023-07-31T06:12:03;19.02;66.61
63202;DHT22;49296;48.188;11.566;2023-07-31T06:14:29;18.89;66.64
63202;DHT22;49296;48.188;11.566;2023-07-31T06:16:56;19.09;66.04
63202;DHT22;49296;48.188;11.566;2023-07-31T06:19:24;18.80;66.38
63202;DHT22;49296;48.188;11.566;2023-07-31T06:21:50;18.75;66.33
63202;DHT22;49296;48.188;11.566;2023-07-31T06:24:17;18.65;66.76
63202;DHT22;49296;48.188;11.566;2023-07-31T06:26:45;18.75;66.54
63202;DHT22;49296;48.188;11.566;2023-07-31T06:29:12;18.80;66.26
63202;DHT22;49296;48.188;11.566;2023-07-31T06:31:38;18.95;65.90
63202;DHT22;49296;48.188;11.566;2023-07-31T06:34:06;18.87;66.08
63202;DHT22;49296;48.188;11.566;2023-07-31T06:36:34;18.92;65.38
63202;DHT22;49296;48.188;11.566;2023-07-31T06:39:01;18.89;65.35
63202;DHT22;49296;48.188;11.566;2023-07-31T06:41:27;18.92;65.75
63202;DHT22;49296;48.188;11.566;2023-07-31T06:43:54;18.99;65.75
63202;DHT22;49296;48.188;11.566;2023-07-31T06:46:20;19.09;65.22
63202;DHT22;49296;48.188;11.566;2023-07-31T06:48:47;18.98;65.51
63202;DHT22;49296;48.188;11.566;2023-07-31T06:51:14;19.09;65.24
63202;DHT22;49296;48.188;11.566;2023-07-31T06:53:42;19.23;65.23
63202;DHT22;49296;48.188;11.566;2023-07-31T06:56:10;19.40;64.48
63202;DHT22;49296;48.188;11.566;2023-07-31T06:58:37;19.26;64.35
63202;DHT22;49296;48.188;11.566;2023-07-31T07:01:03;19.33;64.83
63202;DHT22;49296;48.188;11.566;2023-07-31T07:03:30;19.34;64.19
63202;DHT22;49296;48.188;11.566;2023-07-31T07:05:57;19.30;64.78
63202;DHT22;49296;48.188;11.566;2023-07-31T07:08:24;19.25;65.20
63202;DHT22;49296;48.188;11.566;2023-07-31T07:10:52;19.27;65.03
63202;DHT22;49296;48.188;11.566;2023-07-31T07:13:19;19.20;64.82
63202;DHT22;49296;48.188;11.566;2023-07-31T07:15:48;19.04;65.23
63202;DHT22;49296;48.188;11.566;2023-07-31T07:18:14;19.06;65.46
63202;DHT22;49296;48.188;11.566;2023-07-31T07:20:46;19.12;65.33
63202;DHT22;49296;48.188;11.566;2023-07-31T07:23:12;19.09;65.41
63202;DHT22;49296;48.188;11.566;2023-07-31T07:25:39;19.08;65.26
63202;DHT22;49296;48.188;11.566;2023-07-31T07:28:07;19.15;65.00
63202;DHT22;49296;48.188;11.566;2023-07-31T07:30:33;19.09;65.14
63202;DHT22;49296;48.188;11.566;2023-07-31T07:33:00;19.15;64.98
63202;DHT22;49296;48.188;11.566;2023-07-31T07:35:27;19.20;65.35
63202;DHT22;49296;48.188;11.566;2023-07-31T07:37:53;19.25;65.27
63202;DHT22;49296;48.188;11.566;2023-07-31T07:40:20;19.30;65.06
63202;DHT22;49296;48.188;11.566;2023-07-31T07:42:47;19.43;65.08
63202;DHT22;49296;48.188;11.566;2023-07-31T07:45:14;19.51;64.55
63202;DHT22;49296;48.188;11.566;2023-07-31T07:47:41;19.64;64.10
63202;DHT22;49296;48.188;11.566;2023-07-31T07:50:08;19.66;64.03
63202;DHT22;49296;48.188;11.566;2023-07-31T07:52:35;19.67;63.83
63202;DHT22;49296;48.188;11.566;2023-07-31T07:55:02;19.68;64.29
63202;DHT22;49296;48.188;11.566;2023-07-31T07:57:29;19.53;64.23
63202;DHT22;49296;48.188;11.566;2023-07-31T07:59:55;19.61;64.00
63202;DHT22;49296;48.188;11.566;2023-07-31T08:02:23;19.73;64.16
63202;DHT22;49296;48.188;11.566;2023-07-31T08:04:50;19.68;63.89
63202;DHT22;49296;48.188;11.566;2023-07-31T08:07:17;19.79;63.59
63202;DHT22;49296;48.188;11.566;2023-07-31T08:09:43;19.81;63.21
63202;DHT22;49296;48.188;11.566;2023-07-31T08:12:10;19.94;62.67
63202;DHT22;49296;48.188;11.566;2023-07-31T08:14:36;20.02;62.78
63202;DHT22;49296;48.188;11.566;2023-07-31T08:17:03;20.15;62.02
63202;DHT22;49296;48.188;11.566;2023-07-31T08:19:31;20.18;62.67
63202;DHT22;49296;48.188;11.566;2023-07-31T08:21:58;20.39;61.68
63202;DHT22;49296;48.188;11.566;2023-07-31T08:24:24;20.48;61.87
63202;DHT22;49296;48.188;11.566;2023-07-31T08:26:51;20.70;61.68
63202;DHT22;49296;48.188;11.566;2023-07-31T08:29:18;20.81;60.85
63202;DHT22;49296;48.188;11.566;2023-07-31T08:31:44;20.67;61.55
63202;DHT22;49296;48.188;11.566;2023-07-31T08:34:11;20.51;60.77
63202;DHT22;49296;48.188;11.566;2023-07-31T08:36:39;20.54;59.91
63202;DHT22;49296;48.188;11.566;2023-07-31T08:39:05;20.57;58.45
63202;DHT22;49296;48.188;11.566;2023-07-31T08:41:37;20.51;59.02
63202;DHT22;49296;48.188;11.566;2023-07-31T08:44:04;20.37;58.85
63202;DHT22;49296;48.188;11.566;2023-07-31T08:46:31;20.36;58.79
63202;DHT22;49296;48.188;11.566;2023-07-31T08:48:59;20.46;58.92
63202;DHT22;49296;48.188;11.566;2023-07-31T08:51:26;20.28;59.09
63202;DHT22;49296;48.188;11.566;2023-07-31T08:53:54;19.96;60.20
63202;DHT22;49296;48.188;11.566;2023-07-31T08:56:22;20.08;60.20
63202;DHT22;49296;48.188;11.566;2023-07-31T08:58:51;20.06;60.68
63202;DHT22;49296;48.188;11.566;2023-07-31T09:01:18;19.91;60.68
63202;DHT22;49296;48.188;11.566;2023-07-31T09:03:45;19.99;60.97
63202;DHT22;49296;48.188;11.566;2023-07-31T09:06:13;20.05;60.45
63202;DHT22;49296;48.188;11.566;2023-07-31T09:08:41;20.15;61.21
63202;DHT22;49296;48.188;11.566;2023-07-31T09:11:09;20.37;61.47
63202;DHT22;49296;48.188;11.566;2023-07-31T09:13:36;20.48;60.74
63202;DHT22;49296;48.188;11.566;2023-07-31T09:16:04;20.68;60.40
63202;DHT22;49296;48.188;11.566;2023-07-31T09:18:31;20.63;60.38
63202;DHT22;49296;48.188;11.566;2023-07-31T09:21:02;20.84;59.97
63202;DHT22;49296;48.188;11.566;2023-07-31T09:23:40;20.90;58.73
63202;DHT22;49296;48.188;11.566;2023-07-31T09:26:07;21.05;58.87
63202;DHT22;49296;48.188;11.566;2023-07-31T09:28:35;21.08;58.61
63202;DHT22;49296;48.188;11.566;2023-07-31T09:31:02;20.84;58.77
63202;DHT22;49296;48.188;11.566;2023-07-31T09:33:28;20.65;59.38
63202;DHT22;49296;48.188;11.566;2023-07-31T09:35:58;20.85;57.74
63202;DHT22;49296;48.188;11.566;2023-07-31T09:38:24;20.74;58.26
63202;DHT22;49296;48.188;11.566;2023-07-31T09:40:51;20.71;58.91
63202;DHT22;49296;48.188;11.566;2023-07-31T09:43:19;20.80;58.92
63202;DHT22;49296;48.188;11.566;2023-07-31T09:45:52;20.68;59.05
63202;DHT22;49296;48.188;11.566;2023-07-31T09:48:20;20.70;59.54
63202;DHT22;49296;48.188;11.566;2023-07-31T09:50:48;20.84;58.78
63202;DHT22;49296;48.188;11.566;2023-07-31T09:53:15;20.84;58.34
63202;DHT22;49296;48.188;11.566;2023-07-31T09:55:43;20.96;58.35
63202;DHT22;49296;48.188;11.566;2023-07-31T09:58:11;20.80;58.99
63202;DHT22;49296;48.188;11.566;2023-07-31T10:00:38;20.92;58.96
63202;DHT22;49296;48.188;11.566;2023-07-31T10:03:07;21.18;57.88
63202;DHT22;49296;48.188;11.566;2023-07-31T10:05:36;21.16;57.47
63202;DHT22;49296;48.188;11.566;2023-07-31T10:08:04;21.16;56.54
63202;DHT22;49296;48.188;11.566;2023-07-31T10:10:32;21.18;57.45
63202;DHT22;49296;48.188;11.566;2023-07-31T10:13:01;21.13;57.27
63202;DHT22;49296;48.188;11.566;2023-07-31T10:15:28;21.06;58.21
63202;DHT22;49296;48.188;11.566;2023-07-31T10:17:56;21.23;57.75
63202;DHT22;49296;48.188;11.566;2023-07-31T10:20:25;21.44;57.57
63202;DHT22;49296;48.188;11.566;2023-07-31T10:22:54;21.54;56.32
63202;DHT22;49296;48.188;11.566;2023-07-31T10:25:22;21.49;56.97
63202;DHT22;49296;48.188;11.566;2023-07-31T10:27:49;21.57;56.32
63202;DHT22;49296;48.188;11.566;2023-07-31T10:30:17;21.75;56.92
63202;DHT22;49296;48.188;11.566;2023-07-31T10:32:44;21.95;55.74
63202;DHT22;49296;48.188;11.566;2023-07-31T10:35:12;22.05;54.89
63202;DHT22;49296;48.188;11.566;2023-07-31T10:37:41;22.19;54.92
63202;DHT22;49296;48.188;11.566;2023-07-31T10:40:10;22.06;53.94
63202;DHT22;49296;48.188;11.566;2023-07-31T10:42:45;22.15;54.31
63202;DHT22;49296;48.188;11.566;2023-07-31T10:45:13;22.12;53.74
63202;DHT22;49296;48.188;11.566;2023-07-31T10:47:43;21.99;54.26
63202;DHT22;49296;48.188;11.566;2023-07-31T10:50:15;21.99;54.72
63202;DHT22;49296;48.188;11.566;2023-07-31T10:52:46;22.08;54.37
63202;DHT22;49296;48.188;11.566;2023-07-31T10:55:25;21.96;53.36
63202;DHT22;49296;48.188;11.566;2023-07-31T10:57:52;21.91;53.74
63202;DHT22;49296;48.188;11.566;2023-07-31T11:00:21;21.95;54.52
63202;DHT22;49296;48.188;11.566;2023-07-31T11:02:58;22.12;54.71
63202;DHT22;49296;48.188;11.566;2023-07-31T11:05:42;22.06;54.09
63202;DHT22;49296;48.188;11.566;2023-07-31T11:08:16;21.98;54.08
63202;DHT22;49296;48.188;11.566;2023-07-31T11:10:43;22.09;54.49
63202;DHT22;49296;48.188;11.566;2023-07-31T11:13:10;22.22;54.97
63202;DHT22;49296;48.188;11.566;2023-07-31T11:15:37;22.26;54.45
63202;DHT22;49296;48.188;11.566;2023-07-31T11:18:03;22.43;53.37
63202;DHT22;49296;48.188;11.566;2023-07-31T11:20:31;22.35;53.40
63202;DHT22;49296;48.188;11.566;2023-07-31T11:23:01;22.41;53.87
63202;DHT22;49296;48.188;11.566;2023-07-31T11:25:30;22.43;54.27
63202;DHT22;49296;48.188;11.566;2023-07-31T11:27:57;22.64;53.28
63202;DHT22;49296;48.188;11.566;2023-07-31T11:30:24;22.54;53.66
63202;DHT22;49296;48.188;11.566;2023-07-31T11:32:50;22.48;54.20
63202;DHT22;49296;48.188;11.566;2023-07-31T11:35:17;22.60;53.24
63202;DHT22;49296;48.188;11.566;2023-07-31T11:37:44;22.61;51.79
63202;DHT22;49296;48.188;11.566;2023-07-31T11:40:11;22.60;52.12
63202;DHT22;49296;48.188;11.566;2023-07-31T11:42:40;22.81;51.53
63202;DHT22;49296;48.188;11.566;2023-07-31T11:45:08;22.74;51.52
63202;DHT22;49296;48.188;11.566;2023-07-31T11:47:36;22.51;52.48
63202;DHT22;49296;48.188;11.566;2023-07-31T11:50:04;22.65;52.91
63202;DHT22;49296;48.188;11.566;2023-07-31T11:52:34;22.78;52.61
63202;DHT22;49296;48.188;11.566;2023-07-31T11:55:04;22.91;52.18
63202;DHT22;49296;48.188;11.566;2023-07-31T11:57:32;23.01;52.32
63202;DHT22;49296;48.188;11.566;2023-07-31T12:00:01;23.12;52.32
63202;DHT22;49296;48.188;11.566;2023-07-31T12:02:28;23.36;52.36
63202;DHT22;49296;48.188;11.566;2023-07-31T12:04:55;23.36;51.04
63202;DHT22;49296;48.188;11.566;2023-07-31T12:07:21;23.18;51.83
63202;DHT22;49296;48.188;11.566;2023-07-31T12:09:53;23.42;51.95
63202;DHT22;49296;48.188;11.566;2023-07-31T12:12:21;23.42;51.93
63202;DHT22;49296;48.188;11.566;2023-07-31T12:14:48;23.72;51.24
63202;DHT22;49296;48.188;11.566;2023-07-31T12:17:19;23.90;49.68
63202;DHT22;49296;48.188;11.566;2023-07-31T12:19:45;24.01;50.31
63202;DHT22;49296;48.188;11.566;2023-07-31T12:22:15;23.81;49.93
63202;DHT22;49296;48.188;11.566;2023-07-31T12:24:43;23.86;50.23
63202;DHT22;49296;48.188;11.566;2023-07-31T12:27:11;23.89;49.81
63202;DHT22;49296;48.188;11.566;2023-07-31T12:29:38;24.22;49.36
63202;DHT22;49296;48.188;11.566;2023-07-31T12:32:19;24.68;47.90
63202;DHT22;49296;48.188;11.566;2023-07-31T12:34:46;24.60;47.76
63202;DHT22;49296;48.188;11.566;2023-07-31T12:37:13;24.57;48.24
63202;DHT22;49296;48.188;11.566;2023-07-31T12:39:39;24.29;47.71
63202;DHT22;49296;48.188;11.566;2023-07-31T12:42:06;24.44;47.88
63202;DHT22;49296;48.188;11.566;2023-07-31T12:44:33;24.71;46.69
63202;DHT22;49296;48.188;11.566;2023-07-31T12:46:59;24.85;45.53
63202;DHT22;49296;48.188;11.566;2023-07-31T12:49:27;25.31;45.67
63202;DHT22;49296;48.188;11.566;2023-07-31T12:51:54;25.43;45.80
63202;DHT22;49296;48.188;11.566;2023-07-31T12:54:20;25.47;45.85
63202;DHT22;49296;48.188;11.566;2023-07-31T12:56:47;25.20;46.63
63202;DHT22;49296;48.188;11.566;2023-07-31T12:59:14;25.40;45.60
63202;DHT22;49296;48.188;11.566;2023-07-31T13:01:40;25.58;45.34
63202;DHT22;49296;48.188;11.566;2023-07-31T13:04:07;25.61;47.49
63202;DHT22;49296;48.188;11.566;2023-07-31T13:06:35;25.64;46.31
63202;DHT22;49296;48.188;11.566;2023-07-31T13:09:02;25.93;44.88
63202;DHT22;49296;48.188;11.566;2023-07-31T13:11:29;26.02;45.55
63202;DHT22;49296;48.188;11.566;2023-07-31T13:13:56;26.13;45.64
63202;DHT22;49296;48.188;11.566;2023-07-31T13:16:22;26.22;45.38
63202;DHT22;49296;48.188;11.566;2023-07-31T13:18:49;26.05;46.23
63202;DHT22;49296;48.188;11.566;2023-07-31T13:21:17;25.89;46.66
63202;DHT22;49296;48.188;11.566;2023-07-31T13:23:45;26.00;45.90
63202;DHT22;49296;48.188;11.566;2023-07-31T13:26:11;25.77;46.40
63202;DHT22;49296;48.188;11.566;2023-07-31T13:28:38;26.20;46.54
63202;DHT22;49296;48.188;11.566;2023-07-31T13:31:04;26.51;45.69
63202;DHT22;49296;48.188;11.566;2023-07-31T13:33:31;26.75;45.06
63202;DHT22;49296;48.188;11.566;2023-07-31T13:35:58;26.19;44.99
63202;DHT22;49296;48.188;11.566;2023-07-31T13:38:24;26.22;45.39
63202;DHT22;49296;48.188;11.566;2023-07-31T13:40:52;25.77;45.57
63202;DHT22;49296;48.188;11.566;2023-07-31T13:43:19;25.53;45.71
63202;DHT22;49296;48.188;11.566;2023-07-31T13:45:45;25.89;45.75
63202;DHT22;49296;48.188;11.566;2023-07-31T13:48:12;26.32;43.87
63202;DHT22;49296;48.188;11.566;2023-07-31T13:50:38;26.78;43.97
63202;DHT22;49296;48.188;11.566;2023-07-31T13:53:05;26.58;44.97
63202;DHT22;49296;48.188;11.566;2023-07-31T13:55:31;26.74;45.29
63202;DHT22;49296;48.188;11.566;2023-07-31T13:57:59;25.75;44.71
63202;DHT22;49296;48.188;11.566;2023-07-31T14:00:26;25.84;45.77
63202;DHT22;49296;48.188;11.566;2023-07-31T14:02:54;25.47;46.61
63202;DHT22;49296;48.188;11.566;2023-07-31T14:05:20;25.46;46.85
63202;DHT22;49296;48.188;11.566;2023-07-31T14:07:47;25.03;47.57
63202;DHT22;49296;48.188;11.566;2023-07-31T14:10:14;25.03;48.21
63202;DHT22;49296;48.188;11.566;2023-07-31T14:12:40;25.22;47.54
63202;DHT22;49296;48.188;11.566;2023-07-31T14:15:11;25.33;46.80
63202;DHT22;49296;48.188;11.566;2023-07-31T14:17:38;25.48;46.67
63202;DHT22;49296;48.188;11.566;2023-07-31T14:20:06;25.78;46.73
63202;DHT22;49296;48.188;11.566;2023-07-31T14:22:33;25.82;47.82
63202;DHT22;49296;48.188;11.566;2023-07-31T14:24:59;25.57;48.26
63202;DHT22;49296;48.188;11.566;2023-07-31T14:27:26;25.43;48.25
63202;DHT22;49296;48.188;11.566;2023-07-31T14:29:53;25.26;48.59
63202;DHT22;49296;48.188;11.566;2023-07-31T14:32:21;25.95;47.45
63202;DHT22;49296;48.188;11.566;2023-07-31T14:34:48;26.16;47.43
63202;DHT22;49296;48.188;11.566;2023-07-31T14:37:15;26.17;47.26
63202;DHT22;49296;48.188;11.566;2023-07-31T14:39:42;26.52;47.20
63202;DHT22;49296;48.188;11.566;2023-07-31T14:42:09;26.82;45.53
63202;DHT22;49296;48.188;11.566;2023-07-31T14:44:35;27.16;45.25
63202;DHT22;49296;48.188;11.566;2023-07-31T14:47:03;27.05;45.73
63202;DHT22;49296;48.188;11.566;2023-07-31T14:49:32;27.36;44.77
63202;DHT22;49296;48.188;11.566;2023-07-31T14:51:58;27.46;44.66
63202;DHT22;49296;48.188;11.566;2023-07-31T14:54:25;27.07;44.68
63202;DHT22;49296;48.188;11.566;2023-07-31T14:56:54;27.43;43.70
63202;DHT22;49296;48.188;11.566;2023-07-31T14:59:20;26.92;45.38
63202;DHT22;49296;48.188;11.566;2023-07-31T15:01:47;26.69;45.27
63202;DHT22;49296;48.188;11.566;2023-07-31T15:04:14;26.68;45.66
63202;DHT22;49296;48.188;11.566;2023-07-31T15:06:42;26.54;45.77
63202;DHT22;49296;48.188;11.566;2023-07-31T15:09:08;26.00;46.43
63202;DHT22;49296;48.188;11.566;2023-07-31T15:11:35;25.63;44.85
63202;DHT22;49296;48.188;11.566;2023-07-31T15:14:01;25.24;45.60
63202;DHT22;49296;48.188;11.566;2023-07-31T15:16:28;25.29;45.96